createdAt,value
2023-05-14T00:03:05.929Z,80.81
2023-05-14T00:08:09.975Z,79.24
2023-05-14T00:13:14.080Z,78.89
2023-05-14T00:18:15.923Z,79.17
2023-05-14T00:23:17.682Z,80.35
2023-05-14T00:28:19.361Z,79.34
2023-05-14T00:33:23.705Z,78.26
2023-05-14T00:38:27.714Z,79.84
2023-05-14T00:43:33.953Z,83.32
2023-05-14T00:48:35.881Z,86.81
2023-05-14T00:53:37.707Z,88.46
2023-05-14T00:58:41.765Z,90.17
2023-05-14T01:03:43.681Z,90.91
2023-05-14T01:09:23.331Z,92.06
2023-05-14T01:14:41.968Z,88.35
2023-05-14T01:19:47.564Z,89.76
2023-05-14T01:24:53.801Z,90.65
2023-05-14T01:30:22.706Z,92.97
2023-05-14T01:35:28.068Z,91.84
2023-05-14T01:40:32.926Z,93.13
2023-05-14T01:45:36.191Z,93.52
2023-05-14T01:50:40.494Z,94.81
2023-05-14T01:55:44.501Z,95.45
2023-05-14T02:00:50.581Z,94.96
2023-05-14T02:05:56.800Z,96.09
2023-05-14T02:11:00.860Z,97.02
2023-05-14T02:16:08.928Z,97.42
2023-05-14T02:21:12.854Z,97.58
2023-05-14T02:26:16.682Z,98.35
2023-05-14T02:31:19.527Z,99.13
2023-05-14T02:36:21.437Z,99.12
2023-05-14T02:41:27.839Z,100.00
2023-05-14T02:46:31.271Z,100.00
2023-05-14T02:51:35.311Z,100.00
2023-05-14T02:56:37.154Z,100.00
2023-05-14T03:01:38.919Z,100.00
2023-05-14T03:06:41.321Z,100.00
2023-05-14T03:11:43.028Z,100.00
2023-05-14T03:16:47.271Z,100.00
2023-05-14T03:21:51.524Z,100.00
2023-05-14T03:26:55.678Z,100.00
2023-05-14T03:31:59.672Z,100.00
2023-05-14T03:37:01.663Z,100.00
2023-05-14T03:42:03.649Z,100.00
2023-05-14T03:47:09.746Z,100.00
2023-05-14T03:52:14.050Z,100.00
2023-05-14T03:57:18.639Z,100.00
2023-05-14T04:02:20.504Z,100.00
2023-05-14T04:07:24.965Z,100.00
2023-05-14T04:12:28.234Z,100.00
2023-05-14T04:17:33.923Z,100.00
2023-05-14T04:22:39.086Z,100.00
2023-05-14T04:27:43.134Z,100.00
2023-05-14T04:32:47.676Z,100.00
2023-05-14T04:37:52.148Z,100.00
2023-05-14T04:42:53.828Z,100.00
2023-05-14T04:47:55.906Z,100.00
2023-05-14T04:53:03.179Z,100.00
2023-05-14T04:58:05.262Z,100.00
2023-05-14T05:03:09.304Z,100.00
2023-05-14T05:08:11.526Z,100.00
2023-05-14T05:13:17.067Z,100.00
2023-05-14T05:18:19.141Z,98.83
2023-05-14T05:23:23.027Z,97.28
2023-05-14T05:28:24.777Z,96.14
2023-05-14T05:33:28.682Z,94.92
2023-05-14T05:38:35.335Z,93.36
2023-05-14T05:43:39.554Z,92.07
2023-05-14T05:48:43.603Z,91.75
2023-05-14T05:53:47.557Z,90.91
2023-05-14T05:58:49.449Z,89.52
2023-05-14T06:03:51.206Z,89.04
2023-05-14T06:08:52.931Z,89.46
2023-05-14T06:13:59.034Z,88.38
2023-05-14T06:19:06.397Z,87.47
2023-05-14T06:24:10.714Z,86.46
2023-05-14T06:29:12.678Z,84.63
2023-05-14T06:34:16.598Z,83.82
2023-05-14T06:39:18.314Z,82.29
2023-05-14T06:44:22.734Z,81.42
2023-05-14T06:49:24.804Z,81.58
2023-05-14T06:54:28.850Z,79.53
2023-05-14T06:59:33.330Z,79.34
2023-05-14T07:04:35.175Z,79.34
2023-05-14T07:09:36.960Z,78.77
2023-05-14T07:14:38.737Z,79.76
2023-05-14T07:19:44.077Z,79.60
2023-05-14T07:24:48.026Z,78.50
2023-05-14T07:29:52.439Z,77.60
2023-05-14T07:34:59.422Z,76.81
2023-05-14T07:40:03.341Z,77.09
2023-05-14T07:45:05.717Z,77.20
2023-05-14T07:50:10.769Z,76.79
2023-05-14T07:55:12.908Z,74.58
2023-05-14T08:00:18.071Z,72.90
2023-05-14T08:05:20.003Z,72.50
2023-05-14T08:10:21.859Z,70.89
2023-05-14T08:15:25.171Z,70.66
2023-05-14T08:20:31.936Z,68.98
2023-05-14T08:25:41.081Z,68.68
2023-05-14T08:30:42.890Z,67.72
2023-05-14T08:35:44.593Z,67.20
2023-05-14T08:40:56.719Z,67.48
2023-05-14T08:46:01.207Z,67.92
2023-05-14T08:51:03.124Z,66.75
2023-05-14T08:56:05.519Z,65.17
2023-05-14T09:01:09.725Z,64.94
2023-05-14T09:06:11.483Z,64.93
2023-05-14T09:11:15.610Z,62.85
2023-05-14T09:16:20.936Z,62.10
2023-05-14T09:21:23.146Z,61.31
2023-05-14T09:26:30.742Z,59.12
2023-05-14T09:31:33.600Z,59.74
2023-05-14T09:36:35.517Z,60.35
2023-05-14T09:41:39.635Z,54.65
2023-05-14T09:46:41.421Z,56.08
2023-05-14T09:51:46.898Z,57.66
2023-05-14T09:56:48.637Z,55.20
2023-05-14T10:01:51.389Z,55.53
2023-05-14T10:07:00.896Z,53.97
2023-05-14T10:12:02.659Z,52.03
2023-05-14T10:17:17.966Z,53.24
2023-05-14T10:22:27.546Z,51.90
2023-05-14T10:27:32.155Z,50.28
2023-05-14T10:32:34.183Z,49.79
2023-05-14T10:37:38.105Z,52.35
2023-05-14T10:42:46.367Z,51.71
2023-05-14T10:47:48.979Z,51.98
2023-05-14T10:52:55.564Z,50.49
2023-05-14T10:58:01.399Z,47.74
2023-05-14T11:03:07.159Z,46.42
2023-05-14T11:08:09.158Z,46.31
2023-05-14T11:13:11.856Z,44.90
2023-05-14T11:18:27.856Z,44.47
2023-05-14T11:23:29.811Z,46.63
2023-05-14T11:28:31.692Z,44.07
2023-05-14T11:33:33.432Z,42.64
2023-05-14T11:38:35.155Z,41.92
2023-05-14T11:43:36.882Z,41.98
2023-05-14T11:48:38.608Z,42.50
2023-05-14T11:53:42.668Z,41.53
2023-05-14T11:58:56.277Z,39.77
2023-05-14T12:04:00.614Z,38.02
2023-05-14T12:09:09.913Z,38.73
2023-05-14T12:14:15.821Z,39.28
2023-05-14T12:19:21.286Z,34.04
2023-05-14T12:24:27.998Z,33.89
2023-05-14T12:29:29.654Z,31.99
2023-05-14T12:34:34.852Z,34.33
2023-05-14T12:39:38.366Z,29.65
2023-05-14T12:44:40.198Z,31.03
2023-05-14T12:49:41.888Z,27.83
2023-05-14T12:54:45.914Z,28.00
2023-05-14T12:59:50.799Z,24.76
2023-05-14T13:04:54.631Z,25.33
2023-05-14T13:09:58.722Z,24.66
2023-05-14T13:15:02.976Z,24.59
2023-05-14T13:20:08.742Z,25.57
2023-05-14T13:25:10.742Z,24.54
2023-05-14T13:30:17.350Z,23.80
2023-05-14T13:35:21.599Z,24.05
2023-05-14T13:40:23.387Z,21.89
2023-05-14T13:45:25.348Z,22.19
2023-05-14T13:50:27.217Z,23.97
2023-05-14T13:55:29.159Z,22.98
2023-05-14T14:00:32.961Z,23.32
2023-05-14T14:05:40.073Z,24.31
2023-05-14T14:10:42.489Z,23.54
2023-05-14T14:15:47.249Z,23.60
2023-05-14T14:20:49.107Z,24.17
2023-05-14T14:25:53.249Z,25.63
2023-05-14T14:30:54.989Z,26.82
2023-05-14T14:35:59.082Z,25.31
2023-05-14T14:41:03.212Z,25.12
2023-05-14T14:46:09.244Z,25.01
2023-05-14T14:51:13.566Z,24.47
2023-05-14T14:56:18.509Z,23.80
2023-05-14T15:01:25.069Z,23.07
2023-05-14T15:06:29.232Z,24.11
2023-05-14T15:11:30.976Z,23.18
2023-05-14T15:16:34.952Z,22.08
2023-05-14T15:21:36.935Z,22.38
2023-05-14T15:26:38.848Z,22.67
2023-05-14T15:31:44.971Z,24.04
2023-05-14T15:36:46.762Z,24.45
2023-05-14T15:41:55.502Z,23.74
2023-05-14T15:46:57.471Z,24.40
2023-05-14T15:52:02.899Z,24.92
2023-05-14T15:57:07.105Z,27.06
2023-05-14T16:02:11.221Z,28.82
2023-05-14T16:07:13.449Z,28.58
2023-05-14T16:12:17.657Z,30.97
2023-05-14T16:17:21.626Z,31.72
2023-05-14T16:22:29.164Z,33.34
2023-05-14T16:27:33.702Z,33.83
2023-05-14T16:32:35.650Z,34.31
2023-05-14T16:37:37.393Z,36.27
2023-05-14T16:42:39.166Z,36.84
2023-05-14T16:47:41.442Z,38.87
2023-05-14T16:52:47.972Z,38.89
2023-05-14T16:57:52.275Z,40.70
2023-05-14T17:02:56.566Z,41.16
2023-05-14T17:07:58.313Z,42.39
2023-05-14T17:13:00.879Z,44.06
2023-05-14T17:18:06.319Z,44.87
2023-05-14T17:23:13.544Z,47.04
2023-05-14T17:28:15.484Z,47.38
2023-05-14T17:33:19.764Z,48.78
2023-05-14T17:38:21.467Z,49.43
2023-05-14T17:43:23.174Z,49.71
2023-05-14T17:48:27.738Z,49.46
2023-05-14T17:53:29.506Z,50.71
2023-05-14T17:58:31.238Z,52.29
2023-05-14T18:03:38.493Z,52.66
2023-05-14T18:08:41.028Z,52.18
2023-05-14T18:13:45.292Z,52.08
2023-05-14T18:18:47.171Z,51.93
2023-05-14T18:23:51.796Z,53.70
2023-05-14T18:28:53.515Z,54.41
2023-05-14T18:33:59.990Z,57.46
2023-05-14T18:39:05.286Z,60.12
2023-05-14T18:44:11.744Z,61.85
2023-05-14T18:49:19.529Z,60.66
2023-05-14T18:54:26.312Z,59.13
2023-05-14T18:59:31.422Z,58.66
2023-05-14T19:04:33.549Z,58.10
2023-05-14T19:09:38.785Z,58.34
2023-05-14T19:14:48.371Z,58.16
2023-05-14T19:19:56.833Z,59.71
2023-05-14T19:25:05.093Z,57.84
2023-05-14T19:30:08.272Z,58.47
2023-05-14T19:35:14.737Z,58.71
2023-05-14T19:40:19.140Z,57.99
2023-05-14T19:45:20.879Z,58.23
2023-05-14T19:50:25.035Z,59.95
2023-05-14T19:55:28.942Z,60.29
2023-05-14T20:00:30.863Z,60.30
2023-05-14T20:05:34.315Z,61.39
2023-05-14T20:10:36.027Z,62.04
2023-05-14T20:15:40.798Z,63.06
2023-05-14T20:20:44.794Z,64.97
2023-05-14T20:25:47.657Z,63.57
2023-05-14T20:30:52.283Z,65.27
2023-05-14T20:35:56.718Z,66.99
2023-05-14T20:40:58.561Z,68.00
2023-05-14T20:46:00.757Z,68.65
2023-05-14T20:51:04.900Z,68.18
2023-05-14T20:56:06.861Z,69.36
2023-05-14T21:01:09.605Z,69.49
2023-05-14T21:06:13.545Z,69.32
2023-05-14T21:11:15.278Z,70.56
2023-05-14T21:16:20.233Z,70.38
2023-05-14T21:21:22.005Z,72.24
2023-05-14T21:26:26.450Z,72.05
2023-05-14T21:31:30.938Z,72.87
2023-05-14T21:36:39.557Z,72.51
2023-05-14T21:41:41.431Z,73.32
2023-05-14T21:46:43.189Z,73.81
2023-05-14T21:51:52.904Z,75.11
2023-05-14T21:56:56.918Z,75.40
2023-05-14T22:07:08.984Z,77.21
2023-05-14T22:12:12.958Z,78.23
2023-05-14T22:17:14.696Z,78.48
2023-05-14T22:22:16.361Z,79.91
2023-05-14T22:27:18.404Z,80.73
2023-05-14T22:32:24.561Z,81.75
2023-05-14T22:37:29.228Z,82.11
2023-05-14T22:42:33.345Z,82.89
2023-05-14T22:47:35.109Z,84.28
2023-05-14T22:52:39.012Z,85.04
2023-05-14T22:57:42.911Z,86.33
2023-05-14T23:02:44.605Z,87.80
2023-05-14T23:07:46.287Z,88.47
2023-05-14T23:12:50.341Z,89.46
2023-05-14T23:17:52.193Z,90.23
2023-05-14T23:22:56.372Z,91.81
2023-05-14T23:28:00.362Z,92.00
2023-05-14T23:33:02.191Z,92.50
2023-05-14T23:38:04.965Z,93.15
2023-05-14T23:43:06.919Z,94.09
2023-05-14T23:48:08.695Z,95.06
2023-05-14T23:53:12.829Z,95.71
2023-05-14T23:58:16.983Z,96.80
